15:12
Airports
Links
Donate
Help keep this website running!
PayPal
Bitcoin
METAR
KIXA 161455Z AUTO 00000KT 10SM CLR 00/M03 A3049 RMK AO2
Current Weather Conditions at KIXA
VFR 14:55:00 16-01-18
Automated station, no observer
Altimeter:30.49 hg
Temp:0.0°c 32°f
Dew point:-3.0°c 27°f
Wind:0 knots, 0 mph, 0 m/s,
Variable direction
Visibility:10.0 statute miles
(CLR) Clear
Past METAR reports
VFR 14:35:00 16-01-18
Automated station, no observer
Altimeter:30.48 hg
Temp:-1.0°c 30°f
Dew point:-3.0°c 27°f
Wind:0 knots, 0 mph, 0 m/s,
Variable direction
Visibility:10.0 statute miles
(CLR) Clear
KIXA 161435Z AUTO 00000KT 10SM CLR M01/M03 A3048 RMK AO2
VFR 14:15:00 16-01-18
Automated station, no observer
Altimeter:30.48 hg
Temp:-2.0°c 28°f
Dew point:-3.0°c 27°f
Wind:0 knots, 0 mph, 0 m/s,
Variable direction
Visibility:10.0 statute miles
(CLR) Clear
KIXA 161415Z AUTO 00000KT 10SM CLR M02/M03 A3048 RMK AO2
VFR 13:55:00 16-01-18
Automated station, no observer
Altimeter:30.49 hg
Temp:-3.0°c 27°f
Dew point:-4.0°c 25°f
Wind:0 knots, 0 mph, 0 m/s,
Variable direction
Visibility:10.0 statute miles
(CLR) Clear
KIXA 161355Z AUTO 00000KT 10SM CLR M03/M04 A3049 RMK AO2
VFR 13:35:00 16-01-18
Automated station, no observer
Altimeter:30.48 hg
Temp:-4.0°c 25°f
Dew point:-5.0°c 23°f
Wind:0 knots, 0 mph, 0 m/s,
Variable direction
Visibility:7.0 statute miles
(CLR) Clear
KIXA 161335Z AUTO 00000KT 7SM CLR M04/M05 A3048 RMK AO2
VFR 13:15:00 16-01-18
Automated station, no observer
Altimeter:30.47 hg
Temp:-5.0°c 23°f
Dew point:-5.0°c 23°f
Wind:0 knots, 0 mph, 0 m/s,
Variable direction
Visibility:10.0 statute miles
(CLR) Clear
KIXA 161315Z AUTO 00000KT 10SM CLR M05/M05 A3047 RMK AO2
VFR 12:55:00 16-01-18
Automated station, no observer
Altimeter:30.47 hg
Temp:-6.0°c 21°f
Dew point:-6.0°c 21°f
Wind:0 knots, 0 mph, 0 m/s,
Variable direction
Visibility:10.0 statute miles
(CLR) Clear
KIXA 161255Z AUTO 00000KT 10SM CLR M06/M06 A3047 RMK AO2
TAF
No TAF for KIXA
Forecast at KIXA
No Forecast Reports for KIXA